sensor_id;sensor_type;location;lat;lon;timestamp;P1;durP1;ratioP1;P2;durP2;ratioP2
34725;SDS011;20951;50.818;4.344;2024-02-15T00:00:09;17.42;;;6.47;;
34725;SDS011;20951;50.818;4.344;2024-02-15T00:02:36;16.48;;;6.70;;
34725;SDS011;20951;50.818;4.344;2024-02-15T00:05:03;20.25;;;6.40;;
34725;SDS011;20951;50.818;4.344;2024-02-15T00:07:29;17.85;;;6.45;;
34725;SDS011;20951;50.818;4.344;2024-02-15T00:09:55;17.60;;;5.95;;
34725;SDS011;20951;50.818;4.344;2024-02-15T00:12:21;20.25;;;6.40;;
34725;SDS011;20951;50.818;4.344;2024-02-15T00:14:46;20.48;;;6.10;;
34725;SDS011;20951;50.818;4.344;2024-02-15T00:17:13;14.55;;;5.53;;
34725;SDS011;20951;50.818;4.344;2024-02-15T00:19:39;22.80;;;6.50;;
34725;SDS011;20951;50.818;4.344;2024-02-15T00:22:07;13.95;;;5.75;;
34725;SDS011;20951;50.818;4.344;2024-02-15T00:24:33;15.75;;;5.70;;
34725;SDS011;20951;50.818;4.344;2024-02-15T00:27:01;13.60;;;5.25;;
34725;SDS011;20951;50.818;4.344;2024-02-15T00:29:27;16.50;;;5.47;;
34725;SDS011;20951;50.818;4.344;2024-02-15T00:31:54;15.25;;;5.07;;
34725;SDS011;20951;50.818;4.344;2024-02-15T00:34:20;18.23;;;5.30;;
34725;SDS011;20951;50.818;4.344;2024-02-15T00:36:46;18.15;;;5.22;;
34725;SDS011;20951;50.818;4.344;2024-02-15T00:39:11;13.88;;;5.00;;
34725;SDS011;20951;50.818;4.344;2024-02-15T00:41:43;14.98;;;4.97;;
34725;SDS011;20951;50.818;4.344;2024-02-15T00:44:10;15.93;;;5.40;;
34725;SDS011;20951;50.818;4.344;2024-02-15T00:46:37;18.05;;;4.53;;
34725;SDS011;20951;50.818;4.344;2024-02-15T00:49:03;16.48;;;4.70;;
34725;SDS011;20951;50.818;4.344;2024-02-15T00:51:40;11.57;;;4.20;;
34725;SDS011;20951;50.818;4.344;2024-02-15T00:54:06;12.50;;;4.60;;
34725;SDS011;20951;50.818;4.344;2024-02-15T00:56:31;12.93;;;3.80;;
34725;SDS011;20951;50.818;4.344;2024-02-15T00:59:00;15.55;;;4.03;;
34725;SDS011;20951;50.818;4.344;2024-02-15T01:01:26;12.85;;;4.22;;
34725;SDS011;20951;50.818;4.344;2024-02-15T01:03:52;15.68;;;4.03;;
34725;SDS011;20951;50.818;4.344;2024-02-15T01:06:18;12.38;;;3.47;;
34725;SDS011;20951;50.818;4.344;2024-02-15T01:08:44;12.27;;;3.75;;
34725;SDS011;20951;50.818;4.344;2024-02-15T01:11:10;10.20;;;3.67;;
34725;SDS011;20951;50.818;4.344;2024-02-15T01:13:35;12.85;;;3.72;;
34725;SDS011;20951;50.818;4.344;2024-02-15T01:16:02;10.63;;;3.85;;
34725;SDS011;20951;50.818;4.344;2024-02-15T01:18:28;14.18;;;3.90;;
34725;SDS011;20951;50.818;4.344;2024-02-15T01:20:57;15.45;;;4.00;;
34725;SDS011;20951;50.818;4.344;2024-02-15T01:23:23;14.45;;;3.80;;
34725;SDS011;20951;50.818;4.344;2024-02-15T01:25:48;11.63;;;3.55;;
34725;SDS011;20951;50.818;4.344;2024-02-15T01:28:14;12.73;;;3.63;;
34725;SDS011;20951;50.818;4.344;2024-02-15T01:30:40;16.52;;;3.05;;
34725;SDS011;20951;50.818;4.344;2024-02-15T01:33:08;12.75;;;3.22;;
34725;SDS011;20951;50.818;4.344;2024-02-15T01:35:36;12.48;;;3.55;;
34725;SDS011;20951;50.818;4.344;2024-02-15T01:38:02;13.43;;;3.25;;
34725;SDS011;20951;50.818;4.344;2024-02-15T01:40:28;9.90;;;3.10;;
34725;SDS011;20951;50.818;4.344;2024-02-15T01:42:54;12.88;;;3.22;;
34725;SDS011;20951;50.818;4.344;2024-02-15T01:45:20;14.23;;;3.28;;
34725;SDS011;20951;50.818;4.344;2024-02-15T01:47:47;9.23;;;3.08;;
34725;SDS011;20951;50.818;4.344;2024-02-15T01:50:14;8.98;;;2.90;;
34725;SDS011;20951;50.818;4.344;2024-02-15T01:52:41;14.10;;;3.45;;
34725;SDS011;20951;50.818;4.344;2024-02-15T01:55:08;11.55;;;2.92;;
34725;SDS011;20951;50.818;4.344;2024-02-15T01:57:38;9.35;;;2.60;;
34725;SDS011;20951;50.818;4.344;2024-02-15T02:00:05;13.20;;;3.28;;
34725;SDS011;20951;50.818;4.344;2024-02-15T02:02:34;10.82;;;2.95;;
34725;SDS011;20951;50.818;4.344;2024-02-15T02:05:00;8.68;;;2.67;;
34725;SDS011;20951;50.818;4.344;2024-02-15T02:07:27;10.98;;;3.17;;
34725;SDS011;20951;50.818;4.344;2024-02-15T02:09:53;11.45;;;2.67;;
34725;SDS011;20951;50.818;4.344;2024-02-15T02:12:19;7.47;;;2.63;;
34725;SDS011;20951;50.818;4.344;2024-02-15T02:14:45;11.25;;;2.67;;
34725;SDS011;20951;50.818;4.344;2024-02-15T02:17:11;9.73;;;2.53;;
34725;SDS011;20951;50.818;4.344;2024-02-15T02:19:41;12.07;;;2.97;;
34725;SDS011;20951;50.818;4.344;2024-02-15T02:22:08;13.77;;;3.20;;
34725;SDS011;20951;50.818;4.344;2024-02-15T02:24:36;9.10;;;3.38;;
34725;SDS011;20951;50.818;4.344;2024-02-15T02:27:12;9.52;;;2.80;;
34725;SDS011;20951;50.818;4.344;2024-02-15T02:29:42;13.55;;;3.10;;
34725;SDS011;20951;50.818;4.344;2024-02-15T02:32:11;10.27;;;3.13;;
34725;SDS011;20951;50.818;4.344;2024-02-15T02:34:37;9.82;;;2.83;;
34725;SDS011;20951;50.818;4.344;2024-02-15T02:37:06;11.27;;;2.60;;
34725;SDS011;20951;50.818;4.344;2024-02-15T02:39:33;11.70;;;2.85;;
34725;SDS011;20951;50.818;4.344;2024-02-15T02:41:59;9.93;;;2.63;;
34725;SDS011;20951;50.818;4.344;2024-02-15T02:44:25;8.18;;;2.85;;
34725;SDS011;20951;50.818;4.344;2024-02-15T02:46:51;8.43;;;2.55;;
34725;SDS011;20951;50.818;4.344;2024-02-15T02:49:16;12.52;;;3.40;;
34725;SDS011;20951;50.818;4.344;2024-02-15T02:51:42;7.35;;;2.30;;
34725;SDS011;20951;50.818;4.344;2024-02-15T02:54:08;9.65;;;2.72;;
34725;SDS011;20951;50.818;4.344;2024-02-15T02:56:34;6.68;;;2.70;;
34725;SDS011;20951;50.818;4.344;2024-02-15T02:58:59;8.75;;;2.65;;
34725;SDS011;20951;50.818;4.344;2024-02-15T03:01:25;8.43;;;2.55;;
34725;SDS011;20951;50.818;4.344;2024-02-15T03:03:51;7.40;;;2.60;;
34725;SDS011;20951;50.818;4.344;2024-02-15T03:06:20;10.23;;;2.92;;
34725;SDS011;20951;50.818;4.344;2024-02-15T03:08:47;11.43;;;3.20;;
34725;SDS011;20951;50.818;4.344;2024-02-15T03:11:12;8.35;;;2.65;;
34725;SDS011;20951;50.818;4.344;2024-02-15T03:13:39;8.10;;;2.85;;
34725;SDS011;20951;50.818;4.344;2024-02-15T03:16:05;8.18;;;2.55;;
34725;SDS011;20951;50.818;4.344;2024-02-15T03:18:31;10.40;;;2.90;;
34725;SDS011;20951;50.818;4.344;2024-02-15T03:20:58;10.52;;;3.00;;
34725;SDS011;20951;50.818;4.344;2024-02-15T03:23:24;10.90;;;3.03;;
34725;SDS011;20951;50.818;4.344;2024-02-15T03:25:49;8.68;;;2.78;;
34725;SDS011;20951;50.818;4.344;2024-02-15T03:28:15;10.60;;;2.63;;
34725;SDS011;20951;50.818;4.344;2024-02-15T03:30:41;10.57;;;2.97;;
34725;SDS011;20951;50.818;4.344;2024-02-15T03:33:08;12.75;;;3.45;;
34725;SDS011;20951;50.818;4.344;2024-02-15T03:35:34;15.15;;;3.13;;
34725;SDS011;20951;50.818;4.344;2024-02-15T03:38:02;11.90;;;3.08;;
34725;SDS011;20951;50.818;4.344;2024-02-15T03:40:28;11.75;;;2.83;;
34725;SDS011;20951;50.818;4.344;2024-02-15T03:42:55;9.65;;;2.85;;
34725;SDS011;20951;50.818;4.344;2024-02-15T03:45:21;10.77;;;2.70;;
34725;SDS011;20951;50.818;4.344;2024-02-15T03:47:50;8.80;;;2.55;;
34725;SDS011;20951;50.818;4.344;2024-02-15T03:50:17;7.78;;;2.67;;
34725;SDS011;20951;50.818;4.344;2024-02-15T03:52:44;10.25;;;2.85;;
34725;SDS011;20951;50.818;4.344;2024-02-15T03:55:10;11.95;;;3.08;;
34725;SDS011;20951;50.818;4.344;2024-02-15T03:57:40;9.25;;;3.13;;
34725;SDS011;20951;50.818;4.344;2024-02-15T04:00:07;16.42;;;3.15;;
34725;SDS011;20951;50.818;4.344;2024-02-15T04:02:35;12.88;;;3.47;;
34725;SDS011;20951;50.818;4.344;2024-02-15T04:05:02;12.57;;;3.47;;
34725;SDS011;20951;50.818;4.344;2024-02-15T04:07:30;8.48;;;2.63;;
34725;SDS011;20951;50.818;4.344;2024-02-15T04:09:56;10.90;;;2.70;;
34725;SDS011;20951;50.818;4.344;2024-02-15T04:12:21;7.35;;;2.95;;
34725;SDS011;20951;50.818;4.344;2024-02-15T04:14:47;8.93;;;3.53;;
34725;SDS011;20951;50.818;4.344;2024-02-15T04:17:14;12.80;;;3.40;;
34725;SDS011;20951;50.818;4.344;2024-02-15T04:19:46;9.73;;;3.47;;
34725;SDS011;20951;50.818;4.344;2024-02-15T04:22:14;10.20;;;3.25;;
34725;SDS011;20951;50.818;4.344;2024-02-15T04:24:41;10.88;;;3.78;;
34725;SDS011;20951;50.818;4.344;2024-02-15T04:27:08;11.52;;;3.70;;
34725;SDS011;20951;50.818;4.344;2024-02-15T04:29:37;13.32;;;3.67;;
34725;SDS011;20951;50.818;4.344;2024-02-15T04:32:06;12.73;;;3.35;;
34725;SDS011;20951;50.818;4.344;2024-02-15T04:34:35;14.20;;;3.28;;
34725;SDS011;20951;50.818;4.344;2024-02-15T04:37:11;10.88;;;3.15;;
34725;SDS011;20951;50.818;4.344;2024-02-15T04:39:38;8.85;;;2.95;;
34725;SDS011;20951;50.818;4.344;2024-02-15T04:42:04;11.40;;;2.80;;
34725;SDS011;20951;50.818;4.344;2024-02-15T04:44:37;11.40;;;2.80;;
34725;SDS011;20951;50.818;4.344;2024-02-15T04:47:05;11.27;;;2.70;;
34725;SDS011;20951;50.818;4.344;2024-02-15T04:49:31;8.70;;;2.85;;
34725;SDS011;20951;50.818;4.344;2024-02-15T04:51:57;9.15;;;2.80;;
34725;SDS011;20951;50.818;4.344;2024-02-15T04:54:23;8.45;;;2.63;;
34725;SDS011;20951;50.818;4.344;2024-02-15T04:56:50;8.80;;;2.65;;
34725;SDS011;20951;50.818;4.344;2024-02-15T04:59:19;9.65;;;2.22;;
34725;SDS011;20951;50.818;4.344;2024-02-15T05:04:22;10.30;;;2.65;;
34725;SDS011;20951;50.818;4.344;2024-02-15T05:06:49;12.43;;;2.83;;
34725;SDS011;20951;50.818;4.344;2024-02-15T05:09:15;11.38;;;2.58;;
34725;SDS011;20951;50.818;4.344;2024-02-15T05:11:43;8.13;;;2.13;;
34725;SDS011;20951;50.818;4.344;2024-02-15T05:14:13;6.47;;;2.42;;
34725;SDS011;20951;50.818;4.344;2024-02-15T05:16:44;9.18;;;2.10;;
34725;SDS011;20951;50.818;4.344;2024-02-15T05:19:17;9.95;;;2.45;;
34725;SDS011;20951;50.818;4.344;2024-02-15T05:21:43;8.20;;;2.28;;
34725;SDS011;20951;50.818;4.344;2024-02-15T05:24:16;4.75;;;1.65;;
34725;SDS011;20951;50.818;4.344;2024-02-15T05:26:43;9.23;;;2.58;;
34725;SDS011;20951;50.818;4.344;2024-02-15T05:29:11;6.57;;;2.00;;
34725;SDS011;20951;50.818;4.344;2024-02-15T05:31:38;7.38;;;1.80;;
34725;SDS011;20951;50.818;4.344;2024-02-15T05:34:07;6.75;;;1.73;;
34725;SDS011;20951;50.818;4.344;2024-02-15T05:36:36;7.68;;;1.92;;
34725;SDS011;20951;50.818;4.344;2024-02-15T05:39:03;7.78;;;1.77;;
34725;SDS011;20951;50.818;4.344;2024-02-15T05:41:29;7.85;;;2.05;;
34725;SDS011;20951;50.818;4.344;2024-02-15T05:43:57;7.55;;;1.83;;
34725;SDS011;20951;50.818;4.344;2024-02-15T05:46:23;7.88;;;2.05;;
34725;SDS011;20951;50.818;4.344;2024-02-15T05:48:49;6.10;;;2.10;;
34725;SDS011;20951;50.818;4.344;2024-02-15T05:51:19;7.03;;;1.70;;
34725;SDS011;20951;50.818;4.344;2024-02-15T05:53:45;4.82;;;1.63;;
34725;SDS011;20951;50.818;4.344;2024-02-15T05:56:11;6.50;;;1.92;;
34725;SDS011;20951;50.818;4.344;2024-02-15T05:58:38;8.45;;;2.13;;
34725;SDS011;20951;50.818;4.344;2024-02-15T06:01:05;4.90;;;1.70;;
34725;SDS011;20951;50.818;4.344;2024-02-15T06:03:32;9.40;;;2.08;;
34725;SDS011;20951;50.818;4.344;2024-02-15T06:06:02;9.15;;;2.33;;
34725;SDS011;20951;50.818;4.344;2024-02-15T06:08:33;8.95;;;2.00;;
34725;SDS011;20951;50.818;4.344;2024-02-15T06:11:01;5.47;;;1.50;;
34725;SDS011;20951;50.818;4.344;2024-02-15T06:13:27;6.13;;;1.80;;
34725;SDS011;20951;50.818;4.344;2024-02-15T06:15:53;6.45;;;1.92;;
34725;SDS011;20951;50.818;4.344;2024-02-15T06:18:20;5.28;;;1.40;;
34725;SDS011;20951;50.818;4.344;2024-02-15T06:20:51;8.93;;;1.95;;
34725;SDS011;20951;50.818;4.344;2024-02-15T06:23:17;6.40;;;2.00;;
34725;SDS011;20951;50.818;4.344;2024-02-15T06:25:43;6.90;;;2.10;;
34725;SDS011;20951;50.818;4.344;2024-02-15T06:28:10;8.82;;;1.80;;
34725;SDS011;20951;50.818;4.344;2024-02-15T06:30:58;7.40;;;2.10;;
34725;SDS011;20951;50.818;4.344;2024-02-15T06:33:43;4.82;;;1.80;;
34725;SDS011;20951;50.818;4.344;2024-02-15T06:39:11;8.00;;;2.00;;
34725;SDS011;20951;50.818;4.344;2024-02-15T06:41:55;6.40;;;1.90;;
34725;SDS011;20951;50.818;4.344;2024-02-15T06:44:21;4.90;;;1.65;;
34725;SDS011;20951;50.818;4.344;2024-02-15T06:46:49;5.57;;;2.05;;
34725;SDS011;20951;50.818;4.344;2024-02-15T06:49:15;6.22;;;2.00;;
34725;SDS011;20951;50.818;4.344;2024-02-15T06:51:41;6.18;;;1.70;;
34725;SDS011;20951;50.818;4.344;2024-02-15T06:54:09;5.68;;;2.08;;
34725;SDS011;20951;50.818;4.344;2024-02-15T06:56:36;8.60;;;2.00;;
34725;SDS011;20951;50.818;4.344;2024-02-15T06:59:05;6.35;;;2.22;;
34725;SDS011;20951;50.818;4.344;2024-02-15T07:01:32;7.03;;;1.95;;
34725;SDS011;20951;50.818;4.344;2024-02-15T07:03:59;5.85;;;1.75;;
34725;SDS011;20951;50.818;4.344;2024-02-15T07:06:28;6.65;;;1.90;;
34725;SDS011;20951;50.818;4.344;2024-02-15T07:08:56;5.70;;;1.70;;
34725;SDS011;20951;50.818;4.344;2024-02-15T07:11:22;6.32;;;1.90;;
34725;SDS011;20951;50.818;4.344;2024-02-15T07:13:49;6.63;;;1.70;;
34725;SDS011;20951;50.818;4.344;2024-02-15T07:16:18;6.75;;;1.60;;
34725;SDS011;20951;50.818;4.344;2024-02-15T07:18:43;7.25;;;1.90;;
34725;SDS011;20951;50.818;4.344;2024-02-15T07:21:11;7.60;;;2.10;;
34725;SDS011;20951;50.818;4.344;2024-02-15T07:23:39;5.20;;;1.50;;
34725;SDS011;20951;50.818;4.344;2024-02-15T07:26:07;6.40;;;1.80;;
34725;SDS011;20951;50.818;4.344;2024-02-15T07:28:33;7.20;;;1.80;;
34725;SDS011;20951;50.818;4.344;2024-02-15T07:30:59;5.78;;;1.85;;
34725;SDS011;20951;50.818;4.344;2024-02-15T07:33:28;5.30;;;2.10;;
34725;SDS011;20951;50.818;4.344;2024-02-15T07:35:54;6.60;;;2.03;;
34725;SDS011;20951;50.818;4.344;2024-02-15T07:38:21;8.32;;;1.88;;
34725;SDS011;20951;50.818;4.344;2024-02-15T07:40:50;8.90;;;1.77;;
34725;SDS011;20951;50.818;4.344;2024-02-15T07:43:16;7.65;;;2.00;;
34725;SDS011;20951;50.818;4.344;2024-02-15T07:45:42;6.95;;;1.75;;
34725;SDS011;20951;50.818;4.344;2024-02-15T07:48:08;8.98;;;2.20;;
34725;SDS011;20951;50.818;4.344;2024-02-15T07:50:34;7.03;;;2.00;;
34725;SDS011;20951;50.818;4.344;2024-02-15T07:53:02;5.47;;;1.90;;
34725;SDS011;20951;50.818;4.344;2024-02-15T07:55:31;6.38;;;1.80;;
34725;SDS011;20951;50.818;4.344;2024-02-15T07:57:57;6.00;;;1.50;;
34725;SDS011;20951;50.818;4.344;2024-02-15T08:00:24;7.88;;;2.10;;
34725;SDS011;20951;50.818;4.344;2024-02-15T08:02:52;5.85;;;1.90;;
34725;SDS011;20951;50.818;4.344;2024-02-15T08:05:18;5.53;;;1.70;;
34725;SDS011;20951;50.818;4.344;2024-02-15T08:07:46;5.53;;;1.65;;
34725;SDS011;20951;50.818;4.344;2024-02-15T08:10:14;4.95;;;1.63;;
34725;SDS011;20951;50.818;4.344;2024-02-15T08:12:41;7.45;;;1.80;;
34725;SDS011;20951;50.818;4.344;2024-02-15T08:15:08;5.88;;;1.75;;
34725;SDS011;20951;50.818;4.344;2024-02-15T08:17:40;4.90;;;1.60;;
34725;SDS011;20951;50.818;4.344;2024-02-15T08:20:07;6.22;;;1.83;;
34725;SDS011;20951;50.818;4.344;2024-02-15T08:22:35;6.32;;;1.83;;
34725;SDS011;20951;50.818;4.344;2024-02-15T08:25:05;7.05;;;1.70;;
34725;SDS011;20951;50.818;4.344;2024-02-15T08:27:31;6.07;;;1.80;;
34725;SDS011;20951;50.818;4.344;2024-02-15T08:29:59;4.90;;;1.48;;
34725;SDS011;20951;50.818;4.344;2024-02-15T08:32:24;8.27;;;1.90;;
34725;SDS011;20951;50.818;4.344;2024-02-15T08:34:50;6.68;;;1.83;;
34725;SDS011;20951;50.818;4.344;2024-02-15T08:37:16;7.40;;;2.25;;
34725;SDS011;20951;50.818;4.344;2024-02-15T08:39:43;6.32;;;2.03;;
34725;SDS011;20951;50.818;4.344;2024-02-15T08:42:10;6.50;;;1.80;;
34725;SDS011;20951;50.818;4.344;2024-02-15T08:44:36;5.35;;;1.75;;
34725;SDS011;20951;50.818;4.344;2024-02-15T08:47:02;6.68;;;2.00;;
34725;SDS011;20951;50.818;4.344;2024-02-15T08:49:29;8.13;;;2.05;;
34725;SDS011;20951;50.818;4.344;2024-02-15T08:51:55;5.20;;;1.55;;
34725;SDS011;20951;50.818;4.344;2024-02-15T08:54:21;6.13;;;2.10;;
34725;SDS011;20951;50.818;4.344;2024-02-15T08:56:48;7.50;;;1.80;;
34725;SDS011;20951;50.818;4.344;2024-02-15T08:59:14;7.65;;;1.98;;
34725;SDS011;20951;50.818;4.344;2024-02-15T09:01:42;7.72;;;1.73;;
34725;SDS011;20951;50.818;4.344;2024-02-15T09:04:12;6.60;;;1.80;;
34725;SDS011;20951;50.818;4.344;2024-02-15T09:06:38;4.85;;;1.73;;
34725;SDS011;20951;50.818;4.344;2024-02-15T09:09:04;7.88;;;2.00;;
34725;SDS011;20951;50.818;4.344;2024-02-15T09:11:29;4.95;;;1.83;;
34725;SDS011;20951;50.818;4.344;2024-02-15T09:13:55;3.72;;;1.40;;
34725;SDS011;20951;50.818;4.344;2024-02-15T09:16:21;6.75;;;1.80;;
34725;SDS011;20951;50.818;4.344;2024-02-15T09:18:47;5.97;;;1.80;;
34725;SDS011;20951;50.818;4.344;2024-02-15T09:21:12;5.80;;;1.67;;
34725;SDS011;20951;50.818;4.344;2024-02-15T09:23:39;6.97;;;1.95;;
34725;SDS011;20951;50.818;4.344;2024-02-15T09:26:05;5.07;;;1.85;;
34725;SDS011;20951;50.818;4.344;2024-02-15T09:28:30;6.07;;;1.70;;
34725;SDS011;20951;50.818;4.344;2024-02-15T09:30:57;7.78;;;1.80;;
34725;SDS011;20951;50.818;4.344;2024-02-15T09:33:24;7.57;;;1.88;;
34725;SDS011;20951;50.818;4.344;2024-02-15T09:35:51;4.50;;;1.58;;
34725;SDS011;20951;50.818;4.344;2024-02-15T09:38:20;7.53;;;1.90;;
34725;SDS011;20951;50.818;4.344;2024-02-15T09:40:50;5.50;;;1.73;;
34725;SDS011;20951;50.818;4.344;2024-02-15T09:43:16;8.52;;;2.00;;
34725;SDS011;20951;50.818;4.344;2024-02-15T09:45:42;6.07;;;1.65;;
34725;SDS011;20951;50.818;4.344;2024-02-15T09:48:09;7.03;;;1.80;;
34725;SDS011;20951;50.818;4.344;2024-02-15T09:50:38;5.97;;;2.15;;
34725;SDS011;20951;50.818;4.344;2024-02-15T09:53:10;6.00;;;1.65;;
34725;SDS011;20951;50.818;4.344;2024-02-15T09:55:37;4.88;;;1.80;;
34725;SDS011;20951;50.818;4.344;2024-02-15T09:58:07;5.32;;;2.03;;
34725;SDS011;20951;50.818;4.344;2024-02-15T10:00:34;5.63;;;1.70;;
34725;SDS011;20951;50.818;4.344;2024-02-15T10:03:00;5.05;;;1.85;;
34725;SDS011;20951;50.818;4.344;2024-02-15T10:05:30;8.70;;;2.00;;
34725;SDS011;20951;50.818;4.344;2024-02-15T10:07:56;4.30;;;1.45;;
34725;SDS011;20951;50.818;4.344;2024-02-15T10:10:25;3.80;;;1.33;;
34725;SDS011;20951;50.818;4.344;2024-02-15T10:12:52;5.18;;;1.90;;
34725;SDS011;20951;50.818;4.344;2024-02-15T10:15:35;7.75;;;1.80;;
34725;SDS011;20951;50.818;4.344;2024-02-15T10:18:03;7.57;;;1.60;;
34725;SDS011;20951;50.818;4.344;2024-02-15T10:20:34;8.05;;;1.70;;
34725;SDS011;20951;50.818;4.344;2024-02-15T10:25:35;6.45;;;1.40;;
34725;SDS011;20951;50.818;4.344;2024-02-15T10:28:02;4.47;;;1.85;;
34725;SDS011;20951;50.818;4.344;2024-02-15T10:30:35;4.18;;;1.60;;
34725;SDS011;20951;50.818;4.344;2024-02-15T10:33:02;4.10;;;1.45;;
34725;SDS011;20951;50.818;4.344;2024-02-15T10:35:29;5.97;;;1.80;;
34725;SDS011;20951;50.818;4.344;2024-02-15T10:38:08;4.40;;;1.40;;
34725;SDS011;20951;50.818;4.344;2024-02-15T10:40:36;5.43;;;1.65;;
34725;SDS011;20951;50.818;4.344;2024-02-15T10:43:09;5.40;;;1.35;;
34725;SDS011;20951;50.818;4.344;2024-02-15T10:45:38;4.35;;;1.52;;
34725;SDS011;20951;50.818;4.344;2024-02-15T10:48:07;5.15;;;1.83;;
34725;SDS011;20951;50.818;4.344;2024-02-15T10:50:33;5.40;;;1.58;;
34725;SDS011;20951;50.818;4.344;2024-02-15T10:52:59;5.32;;;1.70;;
34725;SDS011;20951;50.818;4.344;2024-02-15T10:58:46;5.55;;;1.80;;
34725;SDS011;20951;50.818;4.344;2024-02-15T11:01:17;6.40;;;1.50;;
34725;SDS011;20951;50.818;4.344;2024-02-15T11:03:50;6.25;;;1.60;;
34725;SDS011;20951;50.818;4.344;2024-02-15T11:06:20;4.00;;;1.67;;
34725;SDS011;20951;50.818;4.344;2024-02-15T11:08:47;5.63;;;1.40;;
34725;SDS011;20951;50.818;4.344;2024-02-15T11:11:13;4.55;;;1.60;;
34725;SDS011;20951;50.818;4.344;2024-02-15T11:13:40;4.32;;;1.50;;
34725;SDS011;20951;50.818;4.344;2024-02-15T11:16:07;5.65;;;1.67;;
34725;SDS011;20951;50.818;4.344;2024-02-15T11:18:44;5.97;;;1.85;;
34725;SDS011;20951;50.818;4.344;2024-02-15T11:21:16;4.10;;;1.40;;
34725;SDS011;20951;50.818;4.344;2024-02-15T11:26:50;4.90;;;1.40;;
34725;SDS011;20951;50.818;4.344;2024-02-15T11:37:49;9.23;;;3.25;;
34725;SDS011;20951;50.818;4.344;2024-02-15T11:40:19;5.32;;;1.48;;
34725;SDS011;20951;50.818;4.344;2024-02-15T11:42:52;4.18;;;1.50;;
34725;SDS011;20951;50.818;4.344;2024-02-15T11:45:20;11.52;;;1.70;;
34725;SDS011;20951;50.818;4.344;2024-02-15T11:47:49;3.35;;;1.25;;
34725;SDS011;20951;50.818;4.344;2024-02-15T11:50:17;4.78;;;1.45;;
34725;SDS011;20951;50.818;4.344;2024-02-15T11:52:45;4.88;;;1.70;;
34725;SDS011;20951;50.818;4.344;2024-02-15T11:55:19;5.28;;;1.88;;
34725;SDS011;20951;50.818;4.344;2024-02-15T11:58:01;5.50;;;1.55;;
34725;SDS011;20951;50.818;4.344;2024-02-15T12:00:43;6.97;;;1.77;;
34725;SDS011;20951;50.818;4.344;2024-02-15T12:03:27;4.25;;;1.40;;
34725;SDS011;20951;50.818;4.344;2024-02-15T12:06:12;6.10;;;1.33;;
34725;SDS011;20951;50.818;4.344;2024-02-15T12:09:00;32.05;;;21.58;;
34725;SDS011;20951;50.818;4.344;2024-02-15T12:11:45;5.47;;;1.50;;
34725;SDS011;20951;50.818;4.344;2024-02-15T12:17:14;9.15;;;2.03;;
34725;SDS011;20951;50.818;4.344;2024-02-15T12:22:45;6.03;;;2.05;;
34725;SDS011;20951;50.818;4.344;2024-02-15T12:25:14;7.32;;;2.25;;
34725;SDS011;20951;50.818;4.344;2024-02-15T12:27:41;6.40;;;2.15;;
34725;SDS011;20951;50.818;4.344;2024-02-15T12:30:17;9.55;;;2.88;;
34725;SDS011;20951;50.818;4.344;2024-02-15T12:32:48;6.70;;;2.55;;
34725;SDS011;20951;50.818;4.344;2024-02-15T12:35:15;7.55;;;2.72;;
34725;SDS011;20951;50.818;4.344;2024-02-15T12:37:42;4.05;;;1.70;;
34725;SDS011;20951;50.818;4.344;2024-02-15T12:40:17;4.63;;;2.00;;
34725;SDS011;20951;50.818;4.344;2024-02-15T12:42:45;8.40;;;1.73;;
34725;SDS011;20951;50.818;4.344;2024-02-15T12:45:18;6.32;;;1.95;;
34725;SDS011;20951;50.818;4.344;2024-02-15T12:47:54;5.95;;;1.90;;
34725;SDS011;20951;50.818;4.344;2024-02-15T12:50:21;4.78;;;1.80;;
34725;SDS011;20951;50.818;4.344;2024-02-15T12:52:53;6.13;;;1.58;;
34725;SDS011;20951;50.818;4.344;2024-02-15T12:55:21;8.82;;;2.20;;
34725;SDS011;20951;50.818;4.344;2024-02-15T12:57:53;5.25;;;1.50;;
34725;SDS011;20951;50.818;4.344;2024-02-15T13:00:22;3.67;;;1.35;;
34725;SDS011;20951;50.818;4.344;2024-02-15T13:02:53;4.93;;;1.70;;
34725;SDS011;20951;50.818;4.344;2024-02-15T13:05:21;6.40;;;1.50;;
34725;SDS011;20951;50.818;4.344;2024-02-15T13:07:51;4.18;;;1.30;;
34725;SDS011;20951;50.818;4.344;2024-02-15T13:10:20;4.53;;;1.38;;
34725;SDS011;20951;50.818;4.344;2024-02-15T13:12:46;5.93;;;1.50;;
34725;SDS011;20951;50.818;4.344;2024-02-15T13:15:13;3.95;;;1.13;;
34725;SDS011;20951;50.818;4.344;2024-02-15T13:17:43;7.20;;;1.30;;
34725;SDS011;20951;50.818;4.344;2024-02-15T13:20:11;3.92;;;1.17;;
34725;SDS011;20951;50.818;4.344;2024-02-15T13:22:39;5.88;;;1.02;;
34725;SDS011;20951;50.818;4.344;2024-02-15T13:25:06;3.72;;;1.20;;
34725;SDS011;20951;50.818;4.344;2024-02-15T13:27:33;4.13;;;1.58;;
34725;SDS011;20951;50.818;4.344;2024-02-15T13:30:00;4.35;;;1.52;;
34725;SDS011;20951;50.818;4.344;2024-02-15T13:32:26;3.90;;;1.20;;
34725;SDS011;20951;50.818;4.344;2024-02-15T13:34:51;3.13;;;1.10;;
34725;SDS011;20951;50.818;4.344;2024-02-15T13:37:21;5.10;;;1.30;;
34725;SDS011;20951;50.818;4.344;2024-02-15T13:39:48;3.83;;;1.08;;
34725;SDS011;20951;50.818;4.344;2024-02-15T13:42:15;4.72;;;1.15;;
34725;SDS011;20951;50.818;4.344;2024-02-15T13:44:44;3.60;;;1.10;;
34725;SDS011;20951;50.818;4.344;2024-02-15T13:47:12;5.28;;;1.20;;
34725;SDS011;20951;50.818;4.344;2024-02-15T13:49:38;3.00;;;1.05;;
34725;SDS011;20951;50.818;4.344;2024-02-15T13:52:05;4.70;;;1.20;;
34725;SDS011;20951;50.818;4.344;2024-02-15T13:54:31;3.83;;;1.08;;
34725;SDS011;20951;50.818;4.344;2024-02-15T13:57:02;3.55;;;1.23;;
34725;SDS011;20951;50.818;4.344;2024-02-15T13:59:29;3.83;;;1.20;;
34725;SDS011;20951;50.818;4.344;2024-02-15T14:01:56;3.83;;;1.33;;
34725;SDS011;20951;50.818;4.344;2024-02-15T14:04:23;3.83;;;1.27;;
34725;SDS011;20951;50.818;4.344;2024-02-15T14:06:48;3.00;;;1.10;;
34725;SDS011;20951;50.818;4.344;2024-02-15T14:09:14;4.57;;;1.38;;
34725;SDS011;20951;50.818;4.344;2024-02-15T14:11:42;4.82;;;1.15;;
34725;SDS011;20951;50.818;4.344;2024-02-15T14:14:08;3.90;;;1.20;;
34725;SDS011;20951;50.818;4.344;2024-02-15T14:16:34;4.55;;;1.35;;
34725;SDS011;20951;50.818;4.344;2024-02-15T14:18:59;4.22;;;1.20;;
34725;SDS011;20951;50.818;4.344;2024-02-15T14:21:28;3.42;;;1.23;;
34725;SDS011;20951;50.818;4.344;2024-02-15T14:23:57;3.75;;;1.50;;
34725;SDS011;20951;50.818;4.344;2024-02-15T14:26:23;5.18;;;1.42;;
34725;SDS011;20951;50.818;4.344;2024-02-15T14:28:52;3.00;;;1.10;;
34725;SDS011;20951;50.818;4.344;2024-02-15T14:31:17;2.78;;;1.08;;
34725;SDS011;20951;50.818;4.344;2024-02-15T14:36:27;2.30;;;1.00;;
34725;SDS011;20951;50.818;4.344;2024-02-15T14:38:53;4.80;;;1.13;;
34725;SDS011;20951;50.818;4.344;2024-02-15T14:41:19;2.83;;;1.27;;
34725;SDS011;20951;50.818;4.344;2024-02-15T14:43:45;4.80;;;1.10;;
34725;SDS011;20951;50.818;4.344;2024-02-15T14:46:11;5.13;;;1.10;;
34725;SDS011;20951;50.818;4.344;2024-02-15T14:48:37;5.53;;;1.30;;
34725;SDS011;20951;50.818;4.344;2024-02-15T14:51:06;3.78;;;1.08;;
34725;SDS011;20951;50.818;4.344;2024-02-15T14:53:34;4.53;;;1.27;;
34725;SDS011;20951;50.818;4.344;2024-02-15T14:56:00;4.70;;;1.35;;
34725;SDS011;20951;50.818;4.344;2024-02-15T14:58:29;3.67;;;1.17;;
34725;SDS011;20951;50.818;4.344;2024-02-15T15:00:55;3.63;;;1.08;;
34725;SDS011;20951;50.818;4.344;2024-02-15T15:03:22;4.85;;;1.10;;
34725;SDS011;20951;50.818;4.344;2024-02-15T15:05:48;3.65;;;1.10;;
34725;SDS011;20951;50.818;4.344;2024-02-15T15:11:17;3.90;;;0.98;;
34725;SDS011;20951;50.818;4.344;2024-02-15T15:14:01;2.78;;;1.17;;
34725;SDS011;20951;50.818;4.344;2024-02-15T15:16:29;5.07;;;1.13;;
34725;SDS011;20951;50.818;4.344;2024-02-15T15:18:56;3.95;;;1.15;;
34725;SDS011;20951;50.818;4.344;2024-02-15T15:21:21;4.03;;;1.27;;